Portada
METAR-TAF:

METAR-TAF

Aeroports :

Okayama, Japó

latitud: 34-45N, longitud: 133-51E, altitud: 241 m

Observació

L'informe es va fer fa 1 hora i 6 minuts, a les 00:00 UTC
Vent 1 kt amb direcció variable
Temperatura 27°C
Humitat 84%
Pressió 1008 hPa
Visibilitat: 9000 m
Escasses núvols a una alçada de 1000 ft
Núvols disperses

METAR: RJOB 180000Z VRB01KT 9000 FEW010 SCT/// 27/24 Q1008

Hora: 10:06 (01:06 UTC)

Pronòstic

L'informe es va fer fa 2 hores i 0 minuts, a les 23:06 UTC
Pronòstic vàlid del 18 a les 00 UTC al 19 a les 06 UTC
Vent 4 kt del Sud-Est
Visibilitat 10 km o més
Escasses núvols a una alçada de 2000 ft
Evolucionant progressivament
l' 18 a les 04 UTC al 18 a les 06 UTC
Vent 5 kt del Sud/Sud-Oest
Evolucionant progressivament
l' 18 a les 12 UTC al 18 a les 15 UTC
Vent 5 kt del Nord/Nord-Est

TAF: RJOB 172306Z 1800/1906 14004KT 9999 FEW020 BECMG 1804/1806 20005KT BECMG 1812/1815 03005KT

Observacions i pronòstics meteorològics de més de 4000 aeroports (METAR i TAF).

Les estacions disponibles són els punts grocs i vermells al mapa.

Posi el ratolí al punt desitjat per veure el nom de l'estació.

Feu clic per veure les observacions i els pronòstics meteorològics.

Per canviar el mapa: feu clic els botons verds amb una creu de color negre per apropar; al botó verd amb un guió per allunyar la imatge; o en les fletxes verdes per a mapes adjacents.


METAR-TAF: